createdAt,value
2023-05-22T00:00:54.984Z,14.38
2023-05-22T00:03:24.679Z,14.39
2023-05-22T00:05:53.416Z,14.34
2023-05-22T00:08:21.279Z,13.64
2023-05-22T00:10:50.684Z,14.52
2023-05-22T00:13:18.555Z,14.41
2023-05-22T00:15:46.457Z,14.45
2023-05-22T00:18:14.923Z,13.86
2023-05-22T00:20:42.838Z,14.67
2023-05-22T00:23:12.649Z,13.93
2023-05-22T00:25:41.843Z,14.56
2023-05-22T00:28:13.360Z,14.53
2023-05-22T00:30:41.415Z,14.72
2023-05-22T00:33:09.698Z,14.54
2023-05-22T00:35:37.627Z,14.80
2023-05-22T00:38:06.390Z,14.79
2023-05-22T00:40:34.557Z,14.78
2023-05-22T00:43:08.496Z,14.51
2023-05-22T00:45:38.263Z,14.76
2023-05-22T00:48:08.232Z,14.77
2023-05-22T00:50:36.421Z,13.94
2023-05-22T00:53:04.800Z,14.43
2023-05-22T00:55:32.864Z,14.42
2023-05-22T00:58:02.033Z,14.57
2023-05-22T01:00:30.534Z,14.56
2023-05-22T01:03:01.364Z,14.50
2023-05-22T01:05:29.562Z,14.40
2023-05-22T01:07:58.757Z,14.40
2023-05-22T01:10:27.226Z,14.39
2023-05-22T01:13:08.772Z,14.42
2023-05-22T01:15:43.125Z,14.49
2023-05-22T01:18:20.979Z,14.50
2023-05-22T01:20:58.276Z,14.53
2023-05-22T01:23:54.278Z,14.52
2023-05-22T01:26:40.041Z,14.37
2023-05-22T01:29:32.004Z,14.34
2023-05-22T01:32:03.526Z,14.26
2023-05-22T01:34:36.700Z,14.24
2023-05-22T01:37:06.180Z,14.32
2023-05-22T01:39:34.996Z,14.06
2023-05-22T01:42:03.451Z,14.17
2023-05-22T01:44:31.569Z,13.62
2023-05-22T01:47:05.214Z,14.11
2023-05-22T01:49:36.429Z,14.11
2023-05-22T01:52:12.470Z,14.07
2023-05-22T01:54:47.271Z,14.04
2023-05-22T01:57:22.152Z,14.03
2023-05-22T01:59:55.669Z,14.01
2023-05-22T02:02:25.988Z,13.99
2023-05-22T02:05:00.981Z,13.96
2023-05-22T02:07:30.267Z,13.84
2023-05-22T02:09:59.810Z,13.15
2023-05-22T02:12:28.408Z,13.78
2023-05-22T02:14:56.707Z,13.61
2023-05-22T02:17:24.913Z,13.79
2023-05-22T02:19:52.994Z,13.85
2023-05-22T02:22:22.348Z,13.83
2023-05-22T02:24:50.641Z,13.53
2023-05-22T02:27:18.651Z,13.80
2023-05-22T02:29:46.703Z,13.80
2023-05-22T02:32:14.659Z,13.89
2023-05-22T02:34:42.741Z,13.79
2023-05-22T02:37:10.679Z,13.67
2023-05-22T02:39:40.101Z,13.71
2023-05-22T02:42:08.449Z,13.83
2023-05-22T02:44:36.325Z,13.76
2023-05-22T02:47:04.231Z,13.75
2023-05-22T02:49:32.177Z,13.79
2023-05-22T02:52:00.109Z,13.78
2023-05-22T02:54:27.970Z,13.74
2023-05-22T02:56:57.341Z,13.28
2023-05-22T02:59:25.435Z,12.73
2023-05-22T03:01:54.634Z,13.36
2023-05-22T03:04:22.848Z,13.21
2023-05-22T03:06:50.853Z,13.23
2023-05-22T03:09:20.405Z,13.21
2023-05-22T03:11:48.380Z,13.16
2023-05-22T03:14:17.668Z,13.26
2023-05-22T03:16:45.644Z,13.08
2023-05-22T03:19:15.096Z,12.82
2023-05-22T03:21:44.652Z,12.91
2023-05-22T03:24:13.709Z,12.86
2023-05-22T03:26:42.111Z,12.99
2023-05-22T03:29:10.140Z,12.81
2023-05-22T03:31:39.519Z,13.09
2023-05-22T03:34:07.593Z,13.30
2023-05-22T03:36:35.794Z,13.43
2023-05-22T03:39:03.914Z,13.29
2023-05-22T03:41:32.075Z,13.47
2023-05-22T03:44:00.297Z,13.41
2023-05-22T03:46:28.310Z,13.40
2023-05-22T03:48:57.708Z,13.64
2023-05-22T03:51:25.598Z,13.76
2023-05-22T03:53:53.500Z,13.84
2023-05-22T03:56:21.517Z,13.95
2023-05-22T03:58:50.253Z,14.26
2023-05-22T04:01:18.172Z,14.34
2023-05-22T04:03:46.155Z,14.41
2023-05-22T04:06:15.590Z,14.48
2023-05-22T04:08:43.497Z,14.53
2023-05-22T04:11:11.476Z,14.67
2023-05-22T04:13:39.412Z,14.52
2023-05-22T04:16:07.566Z,14.62
2023-05-22T04:18:36.815Z,14.48
2023-05-22T04:21:08.199Z,14.63
2023-05-22T04:23:38.773Z,14.76
2023-05-22T04:26:08.912Z,15.03
2023-05-22T04:28:36.954Z,15.18
2023-05-22T04:31:06.770Z,15.28
2023-05-22T04:33:36.539Z,15.56
2023-05-22T04:36:05.009Z,15.97
2023-05-22T04:38:37.123Z,16.34
2023-05-22T04:41:08.847Z,16.51
2023-05-22T04:43:38.922Z,16.65
2023-05-22T04:46:08.504Z,16.65
2023-05-22T04:48:37.067Z,16.92
2023-05-22T04:51:06.382Z,17.24
2023-05-22T04:53:34.920Z,17.48
2023-05-22T04:56:03.020Z,17.47
2023-05-22T04:58:32.362Z,17.74
2023-05-22T05:01:00.365Z,17.88
2023-05-22T05:03:28.635Z,18.04
2023-05-22T05:05:56.822Z,18.12
2023-05-22T05:08:24.790Z,18.31
2023-05-22T05:10:52.686Z,18.47
2023-05-22T05:13:20.869Z,18.72
2023-05-22T05:15:50.104Z,18.95
2023-05-22T05:18:19.653Z,19.40
2023-05-22T05:20:47.613Z,19.80
2023-05-22T05:23:16.816Z,19.76
2023-05-22T05:25:45.014Z,19.44
2023-05-22T05:28:12.916Z,19.94
2023-05-22T05:30:41.556Z,20.02
2023-05-22T05:33:11.812Z,20.45
2023-05-22T05:35:42.730Z,20.72
2023-05-22T05:38:11.058Z,20.62
2023-05-22T05:40:39.312Z,20.92
2023-05-22T05:43:09.326Z,20.74
2023-05-22T05:45:37.746Z,20.58
2023-05-22T05:48:06.667Z,20.78
2023-05-22T05:50:36.086Z,20.91
2023-05-22T05:53:05.245Z,21.18
2023-05-22T05:55:34.577Z,20.93
2023-05-22T05:58:02.871Z,20.53
2023-05-22T06:00:31.012Z,20.85
2023-05-22T06:02:59.439Z,21.37
2023-05-22T06:05:29.436Z,21.22
2023-05-22T06:07:59.436Z,20.91
2023-05-22T06:10:27.345Z,20.29
2023-05-22T06:12:55.231Z,19.84
2023-05-22T06:15:23.290Z,20.49
2023-05-22T06:17:51.190Z,20.85
2023-05-22T06:20:19.161Z,21.21
2023-05-22T06:22:47.149Z,21.56
2023-05-22T06:25:16.798Z,22.11
2023-05-22T06:27:45.045Z,21.93
2023-05-22T06:30:15.711Z,21.54
2023-05-22T06:32:47.510Z,21.86
2023-05-22T06:35:16.023Z,21.81
2023-05-22T06:37:43.918Z,22.13
2023-05-22T06:40:12.416Z,22.80
2023-05-22T06:42:42.328Z,23.50
2023-05-22T06:45:11.079Z,23.66
2023-05-22T06:47:39.034Z,23.95
2023-05-22T06:50:08.141Z,23.21
2023-05-22T06:52:36.804Z,22.76
2023-05-22T06:55:05.860Z,21.90
2023-05-22T06:57:33.986Z,22.02
2023-05-22T07:00:04.208Z,22.08
2023-05-22T07:02:32.227Z,21.79
2023-05-22T07:05:00.353Z,21.95
2023-05-22T07:07:28.362Z,22.07
2023-05-22T07:09:56.367Z,22.24
2023-05-22T07:12:26.266Z,22.71
2023-05-22T07:14:55.220Z,23.29
2023-05-22T07:17:24.618Z,23.40
2023-05-22T07:19:52.746Z,22.21
2023-05-22T07:22:20.810Z,23.82
2023-05-22T07:24:48.727Z,23.68
2023-05-22T07:27:16.810Z,23.71
2023-05-22T07:29:44.726Z,23.42
2023-05-22T07:32:12.716Z,23.82
2023-05-22T07:34:42.156Z,23.90
2023-05-22T07:37:14.218Z,23.67
2023-05-22T07:39:42.498Z,23.55
2023-05-22T07:42:10.518Z,23.63
2023-05-22T07:44:38.528Z,23.39
2023-05-22T07:47:07.029Z,22.80
2023-05-22T07:49:34.982Z,22.53
2023-05-22T07:52:04.281Z,22.56
2023-05-22T07:54:32.397Z,22.77
2023-05-22T07:57:03.302Z,22.67
2023-05-22T07:59:31.430Z,23.01
2023-05-22T08:01:59.479Z,23.19
2023-05-22T08:04:27.783Z,22.86
2023-05-22T08:06:55.934Z,23.08
2023-05-22T08:09:28.923Z,23.12
2023-05-22T08:11:56.927Z,23.21
2023-05-22T08:14:24.854Z,22.86
2023-05-22T08:16:52.958Z,23.04
2023-05-22T08:19:21.180Z,22.97
2023-05-22T08:21:49.291Z,22.77
2023-05-22T08:24:17.310Z,23.05
2023-05-22T08:26:46.622Z,22.64
2023-05-22T08:29:14.722Z,23.21
2023-05-22T08:31:42.909Z,22.96
2023-05-22T08:34:11.425Z,23.12
2023-05-22T08:36:39.572Z,23.80
2023-05-22T08:39:08.793Z,23.63
2023-05-22T08:41:36.824Z,23.68
2023-05-22T08:44:06.478Z,24.30
2023-05-22T08:46:38.251Z,24.08
2023-05-22T08:49:07.038Z,24.14
2023-05-22T08:51:36.500Z,24.38
2023-05-22T08:54:07.664Z,24.50
2023-05-22T08:56:39.714Z,24.04
2023-05-22T08:59:15.422Z,23.96
2023-05-22T09:01:43.564Z,23.74
2023-05-22T09:04:11.907Z,23.92
2023-05-22T09:06:40.204Z,24.13
2023-05-22T09:09:08.148Z,24.32
2023-05-22T09:11:36.792Z,23.84
2023-05-22T09:14:08.273Z,23.80
2023-05-22T09:16:46.784Z,23.86
2023-05-22T09:19:15.233Z,23.64
2023-05-22T09:21:44.594Z,23.69
2023-05-22T09:24:13.020Z,23.88
2023-05-22T09:26:41.613Z,23.97
2023-05-22T09:29:09.936Z,23.87
2023-05-22T09:31:43.929Z,24.03
2023-05-22T09:34:15.834Z,23.90
2023-05-22T09:36:44.513Z,23.77
2023-05-22T09:39:12.730Z,23.60
2023-05-22T09:41:41.571Z,23.43
2023-05-22T09:44:16.740Z,23.50
2023-05-22T09:46:47.482Z,23.71
2023-05-22T09:49:17.840Z,23.46
2023-05-22T09:51:48.181Z,23.41
2023-05-22T09:54:18.044Z,23.14
2023-05-22T09:56:50.330Z,22.88
2023-05-22T09:59:23.577Z,22.72
2023-05-22T10:01:52.058Z,22.64
2023-05-22T10:04:23.741Z,22.85
2023-05-22T10:06:54.228Z,22.86
2023-05-22T10:09:25.834Z,22.81
2023-05-22T10:11:56.373Z,22.61
2023-05-22T10:14:25.796Z,22.14
2023-05-22T10:16:55.319Z,21.80
2023-05-22T10:19:27.953Z,21.63
2023-05-22T10:21:58.037Z,21.43
2023-05-22T10:24:26.637Z,21.32
2023-05-22T10:26:55.629Z,21.07
2023-05-22T10:29:29.469Z,19.90
2023-05-22T10:32:05.832Z,18.42
2023-05-22T10:34:41.607Z,17.87
2023-05-22T10:37:22.164Z,17.16
2023-05-22T10:40:01.012Z,17.33
2023-05-22T10:42:31.735Z,17.33
2023-05-22T10:45:01.550Z,17.39
2023-05-22T10:47:29.744Z,17.99
2023-05-22T10:50:12.150Z,18.54
2023-05-22T10:52:41.022Z,19.07
2023-05-22T10:55:11.465Z,19.16
2023-05-22T10:57:40.471Z,19.38
2023-05-22T11:00:10.554Z,19.62
2023-05-22T11:02:41.870Z,20.19
2023-05-22T11:05:36.634Z,20.72
2023-05-22T11:08:12.977Z,21.38
2023-05-22T11:10:53.496Z,21.63
2023-05-22T11:13:21.485Z,21.76
2023-05-22T11:15:50.070Z,21.88
2023-05-22T11:18:18.355Z,21.34
2023-05-22T11:20:48.235Z,19.92
2023-05-22T11:23:19.441Z,19.39
2023-05-22T11:25:47.504Z,19.21
2023-05-22T11:28:16.145Z,18.57
2023-05-22T11:30:44.608Z,18.58
2023-05-22T11:33:13.877Z,18.59
2023-05-22T11:35:43.355Z,18.45
2023-05-22T11:38:13.113Z,18.51
2023-05-22T11:40:41.197Z,18.76
2023-05-22T11:43:09.376Z,19.04
2023-05-22T11:45:38.756Z,19.22
2023-05-22T11:48:06.750Z,19.13
2023-05-22T11:53:09.221Z,19.22
2023-05-22T11:55:38.666Z,19.29
2023-05-22T11:58:06.584Z,19.10
2023-05-22T12:00:34.839Z,19.11
2023-05-22T12:03:02.955Z,18.66
2023-05-22T12:05:33.179Z,18.44
2023-05-22T12:08:01.313Z,18.48
2023-05-22T12:10:29.352Z,18.29
2023-05-22T12:12:58.704Z,18.01
2023-05-22T12:15:27.404Z,17.75
2023-05-22T12:17:56.750Z,17.64
2023-05-22T12:20:29.986Z,17.66
2023-05-22T12:22:59.025Z,17.52
2023-05-22T12:25:36.710Z,17.56
2023-05-22T12:28:07.852Z,17.36
2023-05-22T12:30:42.835Z,17.04
2023-05-22T12:33:15.412Z,18.07
2023-05-22T12:35:43.705Z,18.12
2023-05-22T12:38:13.588Z,18.26
2023-05-22T12:40:41.784Z,18.28
2023-05-22T12:43:11.228Z,18.42
2023-05-22T12:45:41.505Z,18.32
2023-05-22T12:48:10.087Z,18.50
2023-05-22T12:50:38.441Z,18.75
2023-05-22T12:53:06.576Z,18.61
2023-05-22T12:55:34.863Z,18.79
2023-05-22T12:58:03.058Z,18.13
2023-05-22T13:00:32.459Z,18.28
2023-05-22T13:03:00.629Z,18.25
2023-05-22T13:05:28.808Z,18.20
2023-05-22T13:07:56.835Z,18.22
2023-05-22T13:10:24.849Z,18.47
2023-05-22T13:12:52.897Z,18.68
2023-05-22T13:15:21.127Z,19.14
2023-05-22T13:17:50.480Z,19.44
2023-05-22T13:20:18.524Z,19.76
2023-05-22T13:22:46.491Z,20.27
2023-05-22T13:25:14.568Z,20.35
2023-05-22T13:27:42.782Z,20.89
2023-05-22T13:30:11.717Z,20.95
2023-05-22T13:32:39.866Z,21.21
2023-05-22T13:35:10.297Z,20.76
2023-05-22T13:37:38.410Z,21.43
2023-05-22T13:40:07.772Z,21.44
2023-05-22T13:42:36.481Z,21.41
2023-05-22T13:45:04.933Z,21.41
2023-05-22T13:47:32.936Z,20.83
2023-05-22T13:50:00.937Z,21.49
2023-05-22T13:52:30.307Z,21.52
2023-05-22T13:54:58.264Z,21.18
2023-05-22T13:57:26.221Z,20.78
2023-05-22T13:59:54.250Z,20.72
2023-05-22T14:02:22.337Z,20.50
2023-05-22T14:04:51.421Z,20.43
2023-05-22T14:07:19.459Z,20.52
2023-05-22T14:09:48.869Z,20.55
2023-05-22T14:12:16.875Z,20.65
2023-05-22T14:14:44.833Z,20.61
2023-05-22T14:17:12.789Z,20.81
2023-05-22T14:19:41.288Z,20.86
2023-05-22T14:22:09.611Z,21.00
2023-05-22T14:24:37.686Z,20.91
2023-05-22T14:27:07.487Z,20.87
2023-05-22T14:29:35.503Z,20.93
2023-05-22T14:32:05.152Z,20.95
2023-05-22T14:34:33.362Z,20.98
2023-05-22T14:37:01.375Z,21.09
2023-05-22T14:39:29.332Z,21.20
2023-05-22T14:41:57.415Z,21.11
2023-05-22T14:44:26.962Z,20.90
2023-05-22T14:46:54.933Z,20.35
2023-05-22T14:49:23.008Z,20.03
2023-05-22T14:51:51.071Z,19.43
2023-05-22T14:54:19.319Z,18.75
2023-05-22T14:56:47.563Z,18.25
2023-05-22T14:59:15.528Z,17.60
2023-05-22T15:01:50.112Z,17.37
2023-05-22T15:04:18.279Z,17.19
2023-05-22T15:06:46.871Z,17.01
2023-05-22T15:09:14.885Z,16.87
2023-05-22T15:11:45.832Z,16.79
2023-05-22T15:14:13.886Z,16.17
2023-05-22T15:16:42.190Z,16.91
2023-05-22T15:19:11.751Z,16.83
2023-05-22T15:21:42.325Z,17.27
2023-05-22T15:24:10.591Z,17.43
2023-05-22T15:26:38.556Z,17.47
2023-05-22T15:29:07.073Z,17.20
2023-05-22T15:31:35.076Z,16.68
2023-05-22T15:34:03.224Z,16.11
2023-05-22T15:36:34.027Z,15.67
2023-05-22T15:39:02.377Z,15.32
2023-05-22T15:41:30.614Z,15.50
2023-05-22T15:43:58.867Z,14.37
2023-05-22T15:46:27.004Z,15.17
2023-05-22T15:48:55.697Z,15.48
2023-05-22T15:51:23.717Z,15.73
2023-05-22T15:53:53.133Z,15.66
2023-05-22T15:56:21.508Z,15.83
2023-05-22T15:58:49.525Z,16.00
2023-05-22T16:01:18.357Z,16.05
2023-05-22T16:03:46.611Z,16.21
2023-05-22T16:06:14.742Z,16.33
2023-05-22T16:08:43.107Z,16.51
2023-05-22T16:11:12.510Z,16.68
2023-05-22T16:13:40.685Z,16.83
2023-05-22T16:16:08.898Z,16.95
2023-05-22T16:18:36.995Z,17.08
2023-05-22T16:21:05.288Z,16.93
2023-05-22T16:23:33.765Z,17.04
2023-05-22T16:26:01.806Z,17.01
2023-05-22T16:28:31.326Z,16.30
2023-05-22T16:30:59.667Z,16.92
2023-05-22T16:33:28.153Z,16.50
2023-05-22T16:35:56.400Z,15.79
2023-05-22T16:38:24.600Z,16.69
2023-05-22T16:40:53.070Z,16.37
2023-05-22T16:43:21.065Z,16.64
2023-05-22T16:45:51.326Z,16.65
2023-05-22T16:48:20.305Z,16.19
2023-05-22T16:50:48.381Z,16.77
2023-05-22T16:53:17.410Z,16.89
2023-05-22T16:55:45.579Z,16.95
2023-05-22T16:58:14.144Z,16.83
2023-05-22T17:00:42.667Z,16.68
2023-05-22T17:03:13.232Z,16.69
2023-05-22T17:05:41.832Z,16.68
2023-05-22T17:08:10.146Z,16.71
2023-05-22T17:10:38.248Z,16.63
2023-05-22T17:13:10.347Z,16.50
2023-05-22T17:15:38.788Z,16.38
2023-05-22T17:18:07.052Z,16.20
2023-05-22T17:20:36.348Z,16.14
2023-05-22T17:23:04.296Z,15.85
2023-05-22T17:25:32.227Z,15.48
2023-05-22T17:28:00.229Z,15.30
2023-05-22T17:30:28.109Z,15.19
2023-05-22T17:32:57.872Z,15.11
2023-05-22T17:35:26.763Z,14.98
2023-05-22T17:37:56.026Z,14.79
2023-05-22T17:40:29.604Z,14.70
2023-05-22T17:43:04.555Z,14.81
2023-05-22T17:45:32.546Z,14.82
2023-05-22T17:48:00.563Z,14.88
2023-05-22T17:50:28.692Z,14.47
2023-05-22T17:52:57.983Z,15.11
2023-05-22T17:55:26.054Z,14.65
2023-05-22T17:57:54.347Z,15.01
2023-05-22T18:00:22.478Z,14.72
2023-05-22T18:02:50.727Z,14.71
2023-05-22T18:05:18.928Z,14.65
2023-05-22T18:07:46.946Z,14.65
2023-05-22T18:10:16.543Z,14.61
2023-05-22T18:12:44.530Z,14.82
2023-05-22T18:15:13.133Z,14.91
2023-05-22T18:17:41.379Z,14.89
2023-05-22T18:20:12.160Z,14.97
2023-05-22T18:22:41.001Z,15.00
2023-05-22T18:25:10.396Z,14.93
2023-05-22T18:27:39.851Z,14.70
2023-05-22T18:30:09.098Z,14.77
2023-05-22T18:32:38.732Z,14.79
2023-05-22T18:35:07.668Z,13.95
2023-05-22T18:37:36.931Z,14.45
2023-05-22T18:40:06.776Z,14.74
2023-05-22T18:42:34.921Z,14.47
2023-05-22T18:45:05.720Z,14.48
2023-05-22T18:47:33.726Z,14.68
2023-05-22T18:50:01.652Z,14.74
2023-05-22T18:52:29.533Z,14.77
2023-05-22T18:54:57.495Z,14.70
2023-05-22T18:57:26.095Z,14.60
2023-05-22T18:59:54.079Z,14.60
2023-05-22T19:02:23.572Z,14.54
2023-05-22T19:04:51.995Z,14.33
2023-05-22T19:07:21.333Z,14.14
2023-05-22T19:09:49.936Z,13.76
2023-05-22T19:12:18.014Z,14.33
2023-05-22T19:14:48.403Z,14.29
2023-05-22T19:17:16.483Z,14.22
2023-05-22T19:19:46.613Z,14.34
2023-05-22T19:22:17.733Z,14.35
2023-05-22T19:24:46.164Z,14.35
2023-05-22T19:27:14.194Z,14.14
2023-05-22T19:29:42.140Z,14.31
2023-05-22T19:32:10.124Z,14.22
2023-05-22T19:34:38.221Z,14.27
2023-05-22T19:37:08.635Z,14.39
2023-05-22T19:39:36.589Z,14.35
2023-05-22T19:42:04.821Z,14.03
2023-05-22T19:44:32.760Z,14.22
2023-05-22T19:47:01.110Z,13.91
2023-05-22T19:49:37.216Z,14.42
2023-05-22T19:52:07.474Z,14.31
2023-05-22T19:54:35.742Z,14.04
2023-05-22T19:57:04.161Z,14.31
2023-05-22T19:59:33.253Z,14.18
2023-05-22T20:02:02.162Z,14.09
2023-05-22T20:04:31.692Z,14.15
2023-05-22T20:07:00.299Z,14.22
2023-05-22T20:09:29.620Z,14.34
2023-05-22T20:12:02.863Z,13.44
2023-05-22T20:14:30.829Z,14.31
2023-05-22T20:16:59.463Z,14.29
2023-05-22T20:19:29.453Z,14.24
2023-05-22T20:21:58.408Z,14.25
2023-05-22T20:24:26.390Z,14.08
2023-05-22T20:26:56.720Z,13.68
2023-05-22T20:29:24.793Z,13.92
2023-05-22T20:31:54.616Z,13.79
2023-05-22T20:34:23.512Z,13.67
2023-05-22T20:36:53.099Z,13.55
2023-05-22T20:39:22.240Z,13.38
2023-05-22T20:41:50.877Z,13.36
2023-05-22T20:44:23.802Z,13.26
2023-05-22T20:46:53.175Z,13.15
2023-05-22T20:49:21.548Z,13.13
2023-05-22T20:51:50.215Z,13.19
2023-05-22T20:54:18.575Z,13.06
2023-05-22T20:56:46.615Z,13.11
2023-05-22T20:59:14.577Z,12.82
2023-05-22T21:01:43.994Z,13.04
2023-05-22T21:04:12.064Z,13.00
2023-05-22T21:06:40.439Z,12.99
2023-05-22T21:09:08.453Z,12.66
2023-05-22T21:11:36.341Z,12.90
2023-05-22T21:14:04.537Z,12.93
2023-05-22T21:16:32.591Z,12.89
2023-05-22T21:19:02.047Z,12.88
2023-05-22T21:21:36.302Z,12.87
2023-05-22T21:24:04.376Z,12.85
2023-05-22T21:26:32.324Z,12.42
2023-05-22T21:29:00.590Z,12.50
2023-05-22T21:31:28.623Z,12.98
2023-05-22T21:33:57.154Z,12.94
2023-05-22T21:36:26.608Z,12.96
2023-05-22T21:38:56.589Z,12.85
2023-05-22T21:41:24.442Z,12.87
2023-05-22T21:43:52.364Z,12.95
2023-05-22T21:46:22.594Z,12.79
2023-05-22T21:48:50.491Z,13.11
2023-05-22T21:51:18.445Z,13.09
2023-05-22T21:53:47.863Z,12.92
2023-05-22T21:56:15.775Z,13.18
2023-05-22T21:58:43.804Z,13.22
2023-05-22T22:01:11.830Z,13.17
2023-05-22T22:03:39.793Z,13.23
2023-05-22T22:06:08.121Z,13.26
2023-05-22T22:08:36.210Z,13.23
2023-05-22T22:11:05.574Z,13.21
2023-05-22T22:13:33.633Z,13.06
2023-05-22T22:16:01.696Z,12.95
2023-05-22T22:18:33.499Z,12.93
2023-05-22T22:21:02.559Z,12.85
2023-05-22T22:23:30.771Z,13.14
2023-05-22T22:25:58.655Z,13.32
2023-05-22T22:28:28.437Z,13.33
2023-05-22T22:30:56.324Z,13.37
2023-05-22T22:33:24.986Z,13.35
2023-05-22T22:35:54.029Z,13.26
2023-05-22T22:38:21.938Z,13.22
2023-05-22T22:40:49.875Z,13.16
2023-05-22T22:43:18.058Z,13.07
2023-05-22T22:45:47.499Z,12.97
2023-05-22T22:48:16.737Z,12.67
2023-05-22T22:50:44.805Z,12.93
2023-05-22T22:53:12.720Z,12.91
2023-05-22T22:55:41.074Z,12.95
2023-05-22T22:58:09.587Z,13.15
2023-05-22T23:00:37.600Z,13.26
2023-05-22T23:03:06.915Z,13.35
2023-05-22T23:05:34.979Z,13.17
2023-05-22T23:08:03.029Z,13.28
2023-05-22T23:10:30.995Z,13.37
2023-05-22T23:12:59.396Z,13.23
2023-05-22T23:15:27.422Z,13.14
2023-05-22T23:17:55.396Z,13.09
2023-05-22T23:20:24.781Z,13.12
2023-05-22T23:22:52.878Z,12.94
2023-05-22T23:25:20.943Z,13.12
2023-05-22T23:27:48.842Z,13.13
2023-05-22T23:30:17.337Z,13.06
2023-05-22T23:32:45.305Z,12.64
2023-05-22T23:35:13.230Z,12.40
2023-05-22T23:37:42.545Z,12.76
2023-05-22T23:40:10.939Z,12.85
2023-05-22T23:42:38.825Z,12.67
2023-05-22T23:45:07.658Z,12.70
2023-05-22T23:47:35.674Z,11.84
2023-05-22T23:50:03.599Z,12.35
2023-05-22T23:52:31.497Z,12.58
2023-05-22T23:55:00.959Z,12.51
2023-05-22T23:57:28.881Z,12.45
2023-05-22T23:59:56.809Z,12.53
